sensor_id;sensor_type;location;lat;lon;timestamp;P1;durP1;ratioP1;P2;durP2;ratioP2
13230;SDS011;6681;53.254;10.398;2023-04-25T00:02:12;6.23;;;5.20;;
13230;SDS011;6681;53.254;10.398;2023-04-25T00:04:38;7.00;;;4.90;;
13230;SDS011;6681;53.254;10.398;2023-04-25T00:07:03;7.63;;;5.60;;
13230;SDS011;6681;53.254;10.398;2023-04-25T00:09:29;6.03;;;4.77;;
13230;SDS011;6681;53.254;10.398;2023-04-25T00:11:55;9.23;;;5.97;;
13230;SDS011;6681;53.254;10.398;2023-04-25T00:14:21;6.47;;;4.57;;
13230;SDS011;6681;53.254;10.398;2023-04-25T00:16:47;5.83;;;4.63;;
13230;SDS011;6681;53.254;10.398;2023-04-25T00:19:13;12.10;;;4.97;;
13230;SDS011;6681;53.254;10.398;2023-04-25T00:21:39;7.03;;;4.90;;
13230;SDS011;6681;53.254;10.398;2023-04-25T00:24:11;9.83;;;4.50;;
13230;SDS011;6681;53.254;10.398;2023-04-25T00:26:37;6.97;;;5.20;;
13230;SDS011;6681;53.254;10.398;2023-04-25T00:29:03;9.10;;;4.60;;
13230;SDS011;6681;53.254;10.398;2023-04-25T00:31:29;8.97;;;4.77;;
13230;SDS011;6681;53.254;10.398;2023-04-25T00:33:55;8.70;;;5.83;;
13230;SDS011;6681;53.254;10.398;2023-04-25T00:36:21;7.57;;;4.60;;
13230;SDS011;6681;53.254;10.398;2023-04-25T00:38:47;6.23;;;5.53;;
13230;SDS011;6681;53.254;10.398;2023-04-25T00:41:12;5.60;;;5.10;;
13230;SDS011;6681;53.254;10.398;2023-04-25T00:43:38;8.70;;;5.33;;
13230;SDS011;6681;53.254;10.398;2023-04-25T00:46:05;6.07;;;4.80;;
13230;SDS011;6681;53.254;10.398;2023-04-25T00:48:31;6.73;;;4.77;;
13230;SDS011;6681;53.254;10.398;2023-04-25T00:50:57;6.57;;;5.63;;
13230;SDS011;6681;53.254;10.398;2023-04-25T00:53:25;7.37;;;5.17;;
13230;SDS011;6681;53.254;10.398;2023-04-25T00:55:52;7.13;;;4.90;;
13230;SDS011;6681;53.254;10.398;2023-04-25T00:58:19;7.23;;;5.20;;
13230;SDS011;6681;53.254;10.398;2023-04-25T01:00:46;6.07;;;4.90;;
13230;SDS011;6681;53.254;10.398;2023-04-25T01:03:13;6.93;;;4.80;;
13230;SDS011;6681;53.254;10.398;2023-04-25T01:05:42;6.03;;;5.43;;
13230;SDS011;6681;53.254;10.398;2023-04-25T01:08:08;5.43;;;4.83;;
13230;SDS011;6681;53.254;10.398;2023-04-25T01:10:35;7.37;;;5.57;;
13230;SDS011;6681;53.254;10.398;2023-04-25T01:13:01;6.80;;;5.33;;
13230;SDS011;6681;53.254;10.398;2023-04-25T01:15:27;7.27;;;5.93;;
13230;SDS011;6681;53.254;10.398;2023-04-25T01:17:52;8.67;;;6.23;;
13230;SDS011;6681;53.254;10.398;2023-04-25T01:20:21;5.90;;;5.17;;
13230;SDS011;6681;53.254;10.398;2023-04-25T01:22:48;6.37;;;5.10;;
13230;SDS011;6681;53.254;10.398;2023-04-25T01:25:14;7.80;;;5.60;;
13230;SDS011;6681;53.254;10.398;2023-04-25T01:27:40;7.40;;;4.40;;
13230;SDS011;6681;53.254;10.398;2023-04-25T01:33:19;6.83;;;4.20;;
13230;SDS011;6681;53.254;10.398;2023-04-25T01:35:46;12.20;;;4.60;;
13230;SDS011;6681;53.254;10.398;2023-04-25T01:38:12;5.57;;;3.43;;
13230;SDS011;6681;53.254;10.398;2023-04-25T01:40:39;10.07;;;3.53;;
13230;SDS011;6681;53.254;10.398;2023-04-25T01:43:05;7.20;;;3.70;;
13230;SDS011;6681;53.254;10.398;2023-04-25T01:45:33;8.37;;;3.27;;
13230;SDS011;6681;53.254;10.398;2023-04-25T01:48:01;5.27;;;3.33;;
13230;SDS011;6681;53.254;10.398;2023-04-25T01:50:27;5.77;;;3.30;;
13230;SDS011;6681;53.254;10.398;2023-04-25T01:52:52;8.67;;;3.23;;
13230;SDS011;6681;53.254;10.398;2023-04-25T01:55:19;8.53;;;4.00;;
13230;SDS011;6681;53.254;10.398;2023-04-25T01:57:44;16.07;;;3.93;;
13230;SDS011;6681;53.254;10.398;2023-04-25T02:00:10;16.57;;;4.40;;
13230;SDS011;6681;53.254;10.398;2023-04-25T02:02:36;10.50;;;3.53;;
13230;SDS011;6681;53.254;10.398;2023-04-25T02:05:02;13.33;;;4.33;;
13230;SDS011;6681;53.254;10.398;2023-04-25T02:07:28;12.50;;;4.03;;
13230;SDS011;6681;53.254;10.398;2023-04-25T02:13:15;9.60;;;3.53;;
13230;SDS011;6681;53.254;10.398;2023-04-25T02:15:41;13.73;;;4.50;;
13230;SDS011;6681;53.254;10.398;2023-04-25T02:18:06;12.27;;;3.57;;
13230;SDS011;6681;53.254;10.398;2023-04-25T02:20:32;15.77;;;4.17;;
13230;SDS011;6681;53.254;10.398;2023-04-25T02:22:58;15.93;;;4.63;;
13230;SDS011;6681;53.254;10.398;2023-04-25T02:25:23;15.73;;;4.50;;
13230;SDS011;6681;53.254;10.398;2023-04-25T02:27:49;8.50;;;2.97;;
13230;SDS011;6681;53.254;10.398;2023-04-25T02:30:18;14.87;;;3.77;;
13230;SDS011;6681;53.254;10.398;2023-04-25T02:32:44;9.10;;;3.40;;
13230;SDS011;6681;53.254;10.398;2023-04-25T02:35:10;12.20;;;4.80;;
13230;SDS011;6681;53.254;10.398;2023-04-25T02:37:36;10.23;;;3.97;;
13230;SDS011;6681;53.254;10.398;2023-04-25T02:40:03;14.30;;;4.17;;
13230;SDS011;6681;53.254;10.398;2023-04-25T02:42:29;13.93;;;4.20;;
13230;SDS011;6681;53.254;10.398;2023-04-25T02:44:55;17.80;;;3.93;;
13230;SDS011;6681;53.254;10.398;2023-04-25T02:47:21;11.27;;;4.20;;
13230;SDS011;6681;53.254;10.398;2023-04-25T02:49:47;16.03;;;5.80;;
13230;SDS011;6681;53.254;10.398;2023-04-25T02:52:15;10.67;;;3.67;;
13230;SDS011;6681;53.254;10.398;2023-04-25T02:54:40;17.37;;;4.23;;
13230;SDS011;6681;53.254;10.398;2023-04-25T02:57:06;15.43;;;4.33;;
13230;SDS011;6681;53.254;10.398;2023-04-25T02:59:32;14.67;;;5.10;;
13230;SDS011;6681;53.254;10.398;2023-04-25T03:01:58;12.77;;;4.90;;
13230;SDS011;6681;53.254;10.398;2023-04-25T03:04:23;13.20;;;4.03;;
13230;SDS011;6681;53.254;10.398;2023-04-25T03:06:50;19.97;;;4.93;;
13230;SDS011;6681;53.254;10.398;2023-04-25T03:09:15;13.13;;;4.30;;
13230;SDS011;6681;53.254;10.398;2023-04-25T03:11:41;16.43;;;5.33;;
13230;SDS011;6681;53.254;10.398;2023-04-25T03:14:08;18.57;;;4.17;;
13230;SDS011;6681;53.254;10.398;2023-04-25T03:16:34;15.43;;;5.57;;
13230;SDS011;6681;53.254;10.398;2023-04-25T03:19:00;18.73;;;5.60;;
13230;SDS011;6681;53.254;10.398;2023-04-25T03:21:26;13.23;;;5.40;;
13230;SDS011;6681;53.254;10.398;2023-04-25T03:23:52;21.03;;;4.33;;
13230;SDS011;6681;53.254;10.398;2023-04-25T03:26:18;16.37;;;4.20;;
13230;SDS011;6681;53.254;10.398;2023-04-25T03:28:43;19.63;;;4.30;;
13230;SDS011;6681;53.254;10.398;2023-04-25T03:31:09;20.40;;;6.43;;
13230;SDS011;6681;53.254;10.398;2023-04-25T03:33:34;24.17;;;5.40;;
13230;SDS011;6681;53.254;10.398;2023-04-25T03:36:00;18.37;;;5.03;;
13230;SDS011;6681;53.254;10.398;2023-04-25T03:38:26;19.07;;;6.20;;
13230;SDS011;6681;53.254;10.398;2023-04-25T03:40:51;21.67;;;5.23;;
13230;SDS011;6681;53.254;10.398;2023-04-25T03:43:17;19.97;;;5.57;;
13230;SDS011;6681;53.254;10.398;2023-04-25T03:45:43;8.93;;;4.17;;
13230;SDS011;6681;53.254;10.398;2023-04-25T03:48:09;17.73;;;4.50;;
13230;SDS011;6681;53.254;10.398;2023-04-25T03:50:36;15.37;;;4.87;;
13230;SDS011;6681;53.254;10.398;2023-04-25T03:53:02;19.53;;;5.73;;
13230;SDS011;6681;53.254;10.398;2023-04-25T03:55:27;13.73;;;4.33;;
13230;SDS011;6681;53.254;10.398;2023-04-25T03:57:53;16.80;;;5.40;;
13230;SDS011;6681;53.254;10.398;2023-04-25T04:00:19;17.13;;;3.83;;
13230;SDS011;6681;53.254;10.398;2023-04-25T04:02:44;15.63;;;4.90;;
13230;SDS011;6681;53.254;10.398;2023-04-25T04:05:10;23.23;;;5.13;;
13230;SDS011;6681;53.254;10.398;2023-04-25T04:07:36;18.87;;;5.57;;
13230;SDS011;6681;53.254;10.398;2023-04-25T04:10:08;18.93;;;6.23;;
13230;SDS011;6681;53.254;10.398;2023-04-25T04:12:34;21.80;;;6.77;;
13230;SDS011;6681;53.254;10.398;2023-04-25T04:15:01;15.63;;;3.97;;
13230;SDS011;6681;53.254;10.398;2023-04-25T04:17:28;12.33;;;4.87;;
13230;SDS011;6681;53.254;10.398;2023-04-25T04:19:54;12.37;;;4.40;;
13230;SDS011;6681;53.254;10.398;2023-04-25T04:22:21;12.47;;;4.60;;
13230;SDS011;6681;53.254;10.398;2023-04-25T04:24:47;14.17;;;4.30;;
13230;SDS011;6681;53.254;10.398;2023-04-25T04:27:14;10.47;;;4.33;;
13230;SDS011;6681;53.254;10.398;2023-04-25T04:29:42;14.07;;;5.17;;
13230;SDS011;6681;53.254;10.398;2023-04-25T04:32:08;15.23;;;4.80;;
13230;SDS011;6681;53.254;10.398;2023-04-25T04:34:34;10.47;;;4.63;;
13230;SDS011;6681;53.254;10.398;2023-04-25T04:37:02;14.43;;;4.47;;
13230;SDS011;6681;53.254;10.398;2023-04-25T04:39:28;15.33;;;4.13;;
13230;SDS011;6681;53.254;10.398;2023-04-25T04:41:54;16.37;;;3.93;;
13230;SDS011;6681;53.254;10.398;2023-04-25T04:44:28;12.17;;;4.33;;
13230;SDS011;6681;53.254;10.398;2023-04-25T04:46:57;15.20;;;4.07;;
13230;SDS011;6681;53.254;10.398;2023-04-25T04:49:23;17.27;;;4.43;;
13230;SDS011;6681;53.254;10.398;2023-04-25T04:51:49;20.43;;;4.03;;
13230;SDS011;6681;53.254;10.398;2023-04-25T04:54:14;12.73;;;4.43;;
13230;SDS011;6681;53.254;10.398;2023-04-25T04:56:40;20.63;;;5.37;;
13230;SDS011;6681;53.254;10.398;2023-04-25T04:59:07;19.10;;;4.67;;
13230;SDS011;6681;53.254;10.398;2023-04-25T05:01:32;14.07;;;4.30;;
13230;SDS011;6681;53.254;10.398;2023-04-25T05:04:00;11.00;;;4.13;;
13230;SDS011;6681;53.254;10.398;2023-04-25T05:06:26;8.10;;;3.90;;
13230;SDS011;6681;53.254;10.398;2023-04-25T05:08:52;18.80;;;4.37;;
13230;SDS011;6681;53.254;10.398;2023-04-25T05:11:18;17.03;;;6.03;;
13230;SDS011;6681;53.254;10.398;2023-04-25T05:13:44;13.07;;;4.27;;
13230;SDS011;6681;53.254;10.398;2023-04-25T05:16:10;9.33;;;3.87;;
13230;SDS011;6681;53.254;10.398;2023-04-25T05:18:37;15.20;;;3.77;;
13230;SDS011;6681;53.254;10.398;2023-04-25T05:21:04;18.53;;;4.00;;
13230;SDS011;6681;53.254;10.398;2023-04-25T05:23:30;24.47;;;4.43;;
13230;SDS011;6681;53.254;10.398;2023-04-25T05:25:57;13.70;;;3.63;;
13230;SDS011;6681;53.254;10.398;2023-04-25T05:28:22;13.43;;;4.27;;
13230;SDS011;6681;53.254;10.398;2023-04-25T05:30:48;11.17;;;4.07;;
13230;SDS011;6681;53.254;10.398;2023-04-25T05:33:14;13.97;;;3.67;;
13230;SDS011;6681;53.254;10.398;2023-04-25T05:35:40;14.60;;;4.80;;
13230;SDS011;6681;53.254;10.398;2023-04-25T05:38:07;12.60;;;5.20;;
13230;SDS011;6681;53.254;10.398;2023-04-25T05:40:33;16.67;;;4.33;;
13230;SDS011;6681;53.254;10.398;2023-04-25T05:42:58;12.13;;;4.73;;
13230;SDS011;6681;53.254;10.398;2023-04-25T05:45:24;15.57;;;4.23;;
13230;SDS011;6681;53.254;10.398;2023-04-25T05:47:49;16.97;;;4.27;;
13230;SDS011;6681;53.254;10.398;2023-04-25T05:50:15;15.27;;;2.87;;
13230;SDS011;6681;53.254;10.398;2023-04-25T05:52:41;14.70;;;3.97;;
13230;SDS011;6681;53.254;10.398;2023-04-25T05:55:07;14.73;;;3.53;;
13230;SDS011;6681;53.254;10.398;2023-04-25T05:57:33;10.00;;;3.67;;
13230;SDS011;6681;53.254;10.398;2023-04-25T05:59:58;17.00;;;4.50;;
13230;SDS011;6681;53.254;10.398;2023-04-25T06:02:24;8.03;;;3.17;;
13230;SDS011;6681;53.254;10.398;2023-04-25T06:04:50;9.87;;;4.50;;
13230;SDS011;6681;53.254;10.398;2023-04-25T06:07:16;20.00;;;3.70;;
13230;SDS011;6681;53.254;10.398;2023-04-25T06:09:43;11.40;;;5.20;;
13230;SDS011;6681;53.254;10.398;2023-04-25T06:12:09;9.37;;;4.13;;
13230;SDS011;6681;53.254;10.398;2023-04-25T06:14:34;17.63;;;4.93;;
13230;SDS011;6681;53.254;10.398;2023-04-25T06:17:00;11.70;;;4.67;;
13230;SDS011;6681;53.254;10.398;2023-04-25T06:19:32;11.03;;;3.17;;
13230;SDS011;6681;53.254;10.398;2023-04-25T06:21:57;13.93;;;3.63;;
13230;SDS011;6681;53.254;10.398;2023-04-25T06:24:23;7.93;;;4.20;;
13230;SDS011;6681;53.254;10.398;2023-04-25T06:26:49;16.33;;;4.30;;
13230;SDS011;6681;53.254;10.398;2023-04-25T06:29:14;11.87;;;3.40;;
13230;SDS011;6681;53.254;10.398;2023-04-25T06:31:40;12.47;;;3.33;;
13230;SDS011;6681;53.254;10.398;2023-04-25T06:34:06;11.63;;;2.13;;
13230;SDS011;6681;53.254;10.398;2023-04-25T06:36:31;11.63;;;3.43;;
13230;SDS011;6681;53.254;10.398;2023-04-25T06:38:57;13.27;;;4.50;;
13230;SDS011;6681;53.254;10.398;2023-04-25T06:41:22;16.10;;;2.93;;
13230;SDS011;6681;53.254;10.398;2023-04-25T06:43:48;18.83;;;4.17;;
13230;SDS011;6681;53.254;10.398;2023-04-25T06:46:13;11.30;;;3.13;;
13230;SDS011;6681;53.254;10.398;2023-04-25T06:48:39;9.57;;;3.27;;
13230;SDS011;6681;53.254;10.398;2023-04-25T06:51:05;6.13;;;3.03;;
13230;SDS011;6681;53.254;10.398;2023-04-25T06:53:30;11.10;;;3.77;;
13230;SDS011;6681;53.254;10.398;2023-04-25T06:55:56;14.33;;;3.50;;
13230;SDS011;6681;53.254;10.398;2023-04-25T06:58:22;4.20;;;2.80;;
13230;SDS011;6681;53.254;10.398;2023-04-25T07:00:47;7.93;;;3.43;;
13230;SDS011;6681;53.254;10.398;2023-04-25T07:03:13;8.23;;;3.30;;
13230;SDS011;6681;53.254;10.398;2023-04-25T07:05:39;12.30;;;3.27;;
13230;SDS011;6681;53.254;10.398;2023-04-25T07:08:04;6.87;;;2.73;;
13230;SDS011;6681;53.254;10.398;2023-04-25T07:10:30;16.93;;;4.87;;
13230;SDS011;6681;53.254;10.398;2023-04-25T07:12:55;7.47;;;2.50;;
13230;SDS011;6681;53.254;10.398;2023-04-25T07:15:21;11.30;;;3.07;;
13230;SDS011;6681;53.254;10.398;2023-04-25T07:17:47;17.10;;;3.83;;
13230;SDS011;6681;53.254;10.398;2023-04-25T07:20:12;9.37;;;2.37;;
13230;SDS011;6681;53.254;10.398;2023-04-25T07:22:38;9.43;;;2.77;;
13230;SDS011;6681;53.254;10.398;2023-04-25T07:25:04;7.77;;;2.40;;
13230;SDS011;6681;53.254;10.398;2023-04-25T07:27:30;16.63;;;3.47;;
13230;SDS011;6681;53.254;10.398;2023-04-25T07:29:56;7.80;;;2.47;;
13230;SDS011;6681;53.254;10.398;2023-04-25T07:32:22;13.00;;;3.17;;
13230;SDS011;6681;53.254;10.398;2023-04-25T07:34:48;9.67;;;2.90;;
13230;SDS011;6681;53.254;10.398;2023-04-25T07:37:14;10.47;;;3.77;;
13230;SDS011;6681;53.254;10.398;2023-04-25T07:39:40;15.63;;;3.60;;
13230;SDS011;6681;53.254;10.398;2023-04-25T07:42:06;12.60;;;3.57;;
13230;SDS011;6681;53.254;10.398;2023-04-25T07:44:35;15.70;;;4.10;;
13230;SDS011;6681;53.254;10.398;2023-04-25T07:47:04;10.40;;;2.27;;
13230;SDS011;6681;53.254;10.398;2023-04-25T07:49:32;11.40;;;3.83;;
13230;SDS011;6681;53.254;10.398;2023-04-25T07:52:08;12.40;;;3.27;;
13230;SDS011;6681;53.254;10.398;2023-04-25T07:54:34;10.37;;;2.77;;
13230;SDS011;6681;53.254;10.398;2023-04-25T07:57:00;14.53;;;2.67;;
13230;SDS011;6681;53.254;10.398;2023-04-25T07:59:25;6.47;;;2.50;;
13230;SDS011;6681;53.254;10.398;2023-04-25T08:01:51;14.20;;;3.53;;
13230;SDS011;6681;53.254;10.398;2023-04-25T08:04:17;8.83;;;2.40;;
13230;SDS011;6681;53.254;10.398;2023-04-25T08:06:42;10.40;;;1.90;;
13230;SDS011;6681;53.254;10.398;2023-04-25T08:09:08;5.77;;;2.00;;
13230;SDS011;6681;53.254;10.398;2023-04-25T08:11:35;3.73;;;1.63;;
13230;SDS011;6681;53.254;10.398;2023-04-25T08:14:01;8.87;;;3.07;;
13230;SDS011;6681;53.254;10.398;2023-04-25T08:16:27;7.37;;;2.23;;
13230;SDS011;6681;53.254;10.398;2023-04-25T08:18:53;10.30;;;1.97;;
13230;SDS011;6681;53.254;10.398;2023-04-25T08:21:19;7.90;;;2.23;;
13230;SDS011;6681;53.254;10.398;2023-04-25T08:23:45;10.20;;;2.50;;
13230;SDS011;6681;53.254;10.398;2023-04-25T08:26:11;6.67;;;2.53;;
13230;SDS011;6681;53.254;10.398;2023-04-25T08:28:36;10.50;;;2.33;;
13230;SDS011;6681;53.254;10.398;2023-04-25T08:31:02;7.23;;;1.87;;
13230;SDS011;6681;53.254;10.398;2023-04-25T08:33:28;7.93;;;1.90;;
13230;SDS011;6681;53.254;10.398;2023-04-25T08:35:54;6.57;;;2.40;;
13230;SDS011;6681;53.254;10.398;2023-04-25T08:38:19;6.63;;;2.10;;
13230;SDS011;6681;53.254;10.398;2023-04-25T08:40:46;11.47;;;2.37;;
13230;SDS011;6681;53.254;10.398;2023-04-25T08:43:15;7.33;;;1.43;;
13230;SDS011;6681;53.254;10.398;2023-04-25T08:45:44;5.20;;;1.53;;
13230;SDS011;6681;53.254;10.398;2023-04-25T08:48:15;4.70;;;1.70;;
13230;SDS011;6681;53.254;10.398;2023-04-25T08:50:45;3.40;;;2.10;;
13230;SDS011;6681;53.254;10.398;2023-04-25T08:53:16;9.53;;;3.10;;
13230;SDS011;6681;53.254;10.398;2023-04-25T08:55:45;5.33;;;1.77;;
13230;SDS011;6681;53.254;10.398;2023-04-25T08:58:11;4.80;;;1.93;;
13230;SDS011;6681;53.254;10.398;2023-04-25T09:00:38;6.70;;;1.53;;
13230;SDS011;6681;53.254;10.398;2023-04-25T09:03:04;10.00;;;1.80;;
13230;SDS011;6681;53.254;10.398;2023-04-25T09:05:30;7.47;;;2.00;;
13230;SDS011;6681;53.254;10.398;2023-04-25T09:08:00;6.10;;;1.47;;
13230;SDS011;6681;53.254;10.398;2023-04-25T09:10:26;4.70;;;1.70;;
13230;SDS011;6681;53.254;10.398;2023-04-25T09:13:02;6.17;;;2.27;;
13230;SDS011;6681;53.254;10.398;2023-04-25T09:18:12;2.80;;;0.93;;
13230;SDS011;6681;53.254;10.398;2023-04-25T09:20:44;8.10;;;2.67;;
13230;SDS011;6681;53.254;10.398;2023-04-25T09:23:09;5.67;;;1.70;;
13230;SDS011;6681;53.254;10.398;2023-04-25T09:25:35;6.27;;;1.87;;
13230;SDS011;6681;53.254;10.398;2023-04-25T09:28:05;6.97;;;1.73;;
13230;SDS011;6681;53.254;10.398;2023-04-25T09:30:32;4.20;;;2.57;;
13230;SDS011;6681;53.254;10.398;2023-04-25T09:33:05;4.37;;;2.10;;
13230;SDS011;6681;53.254;10.398;2023-04-25T09:35:37;6.53;;;2.57;;
13230;SDS011;6681;53.254;10.398;2023-04-25T09:38:13;7.60;;;1.50;;
13230;SDS011;6681;53.254;10.398;2023-04-25T09:40:41;3.93;;;1.27;;
13230;SDS011;6681;53.254;10.398;2023-04-25T09:43:24;12.47;;;1.67;;
13230;SDS011;6681;53.254;10.398;2023-04-25T09:45:50;7.03;;;1.47;;
13230;SDS011;6681;53.254;10.398;2023-04-25T09:50:45;6.63;;;1.17;;
13230;SDS011;6681;53.254;10.398;2023-04-25T09:53:38;6.60;;;1.77;;
13230;SDS011;6681;53.254;10.398;2023-04-25T09:56:05;4.33;;;1.00;;
13230;SDS011;6681;53.254;10.398;2023-04-25T09:58:33;11.63;;;1.63;;
13230;SDS011;6681;53.254;10.398;2023-04-25T10:01:01;2.40;;;0.70;;
13230;SDS011;6681;53.254;10.398;2023-04-25T10:03:29;6.80;;;1.37;;
13230;SDS011;6681;53.254;10.398;2023-04-25T10:05:57;2.83;;;0.70;;
13230;SDS011;6681;53.254;10.398;2023-04-25T10:08:25;2.70;;;0.67;;
13230;SDS011;6681;53.254;10.398;2023-04-25T10:10:57;4.37;;;1.23;;
13230;SDS011;6681;53.254;10.398;2023-04-25T10:13:25;5.97;;;0.90;;
13230;SDS011;6681;53.254;10.398;2023-04-25T10:15:52;5.03;;;0.90;;
13230;SDS011;6681;53.254;10.398;2023-04-25T10:18:19;2.43;;;0.70;;
13230;SDS011;6681;53.254;10.398;2023-04-25T10:20:45;1.23;;;0.57;;
13230;SDS011;6681;53.254;10.398;2023-04-25T10:23:12;2.83;;;0.50;;
13230;SDS011;6681;53.254;10.398;2023-04-25T10:25:40;8.87;;;1.70;;
13230;SDS011;6681;53.254;10.398;2023-04-25T10:28:06;5.23;;;1.27;;
13230;SDS011;6681;53.254;10.398;2023-04-25T10:30:32;10.00;;;1.30;;
13230;SDS011;6681;53.254;10.398;2023-04-25T10:32:58;2.23;;;0.70;;
13230;SDS011;6681;53.254;10.398;2023-04-25T10:35:25;6.07;;;0.73;;
13230;SDS011;6681;53.254;10.398;2023-04-25T10:38:05;2.50;;;0.60;;
13230;SDS011;6681;53.254;10.398;2023-04-25T10:40:35;7.37;;;0.90;;
13230;SDS011;6681;53.254;10.398;2023-04-25T10:45:59;5.50;;;2.00;;
13230;SDS011;6681;53.254;10.398;2023-04-25T10:48:26;6.67;;;1.30;;
13230;SDS011;6681;53.254;10.398;2023-04-25T10:51:11;6.00;;;1.20;;
13230;SDS011;6681;53.254;10.398;2023-04-25T10:53:46;6.57;;;1.10;;
13230;SDS011;6681;53.254;10.398;2023-04-25T10:56:22;2.83;;;0.97;;
13230;SDS011;6681;53.254;10.398;2023-04-25T10:58:48;4.87;;;1.33;;
13230;SDS011;6681;53.254;10.398;2023-04-25T11:01:15;3.50;;;1.20;;
13230;SDS011;6681;53.254;10.398;2023-04-25T11:03:44;4.57;;;1.53;;
13230;SDS011;6681;53.254;10.398;2023-04-25T11:06:18;1.10;;;1.00;;
13230;SDS011;6681;53.254;10.398;2023-04-25T11:08:48;3.10;;;0.70;;
13230;SDS011;6681;53.254;10.398;2023-04-25T11:11:16;10.83;;;1.57;;
13230;SDS011;6681;53.254;10.398;2023-04-25T11:13:42;3.60;;;1.53;;
13230;SDS011;6681;53.254;10.398;2023-04-25T11:16:08;6.43;;;1.33;;
13230;SDS011;6681;53.254;10.398;2023-04-25T11:18:34;4.07;;;1.30;;
13230;SDS011;6681;53.254;10.398;2023-04-25T11:21:00;4.07;;;0.90;;
13230;SDS011;6681;53.254;10.398;2023-04-25T11:23:27;3.37;;;0.93;;
13230;SDS011;6681;53.254;10.398;2023-04-25T11:25:53;6.40;;;1.60;;
13230;SDS011;6681;53.254;10.398;2023-04-25T11:28:22;2.07;;;0.70;;
13230;SDS011;6681;53.254;10.398;2023-04-25T11:30:48;4.10;;;0.80;;
13230;SDS011;6681;53.254;10.398;2023-04-25T11:33:17;4.60;;;1.17;;
13230;SDS011;6681;53.254;10.398;2023-04-25T11:35:43;5.33;;;1.93;;
13230;SDS011;6681;53.254;10.398;2023-04-25T11:38:09;5.03;;;2.07;;
13230;SDS011;6681;53.254;10.398;2023-04-25T11:40:35;3.73;;;0.87;;
13230;SDS011;6681;53.254;10.398;2023-04-25T11:43:01;4.67;;;1.03;;
13230;SDS011;6681;53.254;10.398;2023-04-25T11:45:27;3.03;;;1.10;;
13230;SDS011;6681;53.254;10.398;2023-04-25T11:47:55;5.07;;;1.57;;
13230;SDS011;6681;53.254;10.398;2023-04-25T11:50:21;5.37;;;1.07;;
13230;SDS011;6681;53.254;10.398;2023-04-25T11:52:47;4.07;;;1.10;;
13230;SDS011;6681;53.254;10.398;2023-04-25T11:55:16;2.00;;;0.97;;
13230;SDS011;6681;53.254;10.398;2023-04-25T11:57:47;4.40;;;1.57;;
13230;SDS011;6681;53.254;10.398;2023-04-25T12:00:15;3.07;;;1.40;;
13230;SDS011;6681;53.254;10.398;2023-04-25T12:03:00;8.63;;;1.70;;
13230;SDS011;6681;53.254;10.398;2023-04-25T12:05:28;4.10;;;1.00;;
13230;SDS011;6681;53.254;10.398;2023-04-25T12:07:55;7.00;;;1.60;;
13230;SDS011;6681;53.254;10.398;2023-04-25T12:10:21;4.33;;;0.80;;
13230;SDS011;6681;53.254;10.398;2023-04-25T12:12:49;6.33;;;1.47;;
13230;SDS011;6681;53.254;10.398;2023-04-25T12:15:19;4.87;;;0.80;;
13230;SDS011;6681;53.254;10.398;2023-04-25T12:17:52;6.10;;;0.83;;
13230;SDS011;6681;53.254;10.398;2023-04-25T12:20:19;2.73;;;0.80;;
13230;SDS011;6681;53.254;10.398;2023-04-25T12:22:48;4.03;;;1.57;;
13230;SDS011;6681;53.254;10.398;2023-04-25T12:28:17;2.37;;;0.90;;
13230;SDS011;6681;53.254;10.398;2023-04-25T12:30:53;6.17;;;1.10;;
13230;SDS011;6681;53.254;10.398;2023-04-25T12:33:19;3.20;;;0.90;;
13230;SDS011;6681;53.254;10.398;2023-04-25T12:35:44;3.80;;;2.10;;
13230;SDS011;6681;53.254;10.398;2023-04-25T12:38:10;3.60;;;0.90;;
13230;SDS011;6681;53.254;10.398;2023-04-25T12:40:36;4.17;;;1.17;;
13230;SDS011;6681;53.254;10.398;2023-04-25T12:43:01;1.30;;;0.80;;
13230;SDS011;6681;53.254;10.398;2023-04-25T12:45:27;4.17;;;1.00;;
13230;SDS011;6681;53.254;10.398;2023-04-25T12:47:53;1.83;;;0.83;;
13230;SDS011;6681;53.254;10.398;2023-04-25T12:50:18;10.50;;;1.20;;
13230;SDS011;6681;53.254;10.398;2023-04-25T12:52:44;4.57;;;0.83;;
13230;SDS011;6681;53.254;10.398;2023-04-25T12:55:10;5.27;;;1.20;;
13230;SDS011;6681;53.254;10.398;2023-04-25T12:57:35;1.80;;;1.30;;
13230;SDS011;6681;53.254;10.398;2023-04-25T13:00:01;7.30;;;0.97;;
13230;SDS011;6681;53.254;10.398;2023-04-25T13:02:29;5.70;;;1.17;;
13230;SDS011;6681;53.254;10.398;2023-04-25T13:04:54;5.27;;;0.83;;
13230;SDS011;6681;53.254;10.398;2023-04-25T13:07:20;5.73;;;1.83;;
13230;SDS011;6681;53.254;10.398;2023-04-25T13:09:46;3.80;;;0.83;;
13230;SDS011;6681;53.254;10.398;2023-04-25T13:12:11;2.87;;;1.77;;
13230;SDS011;6681;53.254;10.398;2023-04-25T13:14:37;12.20;;;1.50;;
13230;SDS011;6681;53.254;10.398;2023-04-25T13:17:02;6.83;;;1.40;;
13230;SDS011;6681;53.254;10.398;2023-04-25T13:19:28;2.70;;;0.80;;
13230;SDS011;6681;53.254;10.398;2023-04-25T13:21:54;7.57;;;1.43;;
13230;SDS011;6681;53.254;10.398;2023-04-25T13:24:19;3.47;;;1.13;;
13230;SDS011;6681;53.254;10.398;2023-04-25T13:26:45;4.53;;;1.40;;
13230;SDS011;6681;53.254;10.398;2023-04-25T13:29:11;2.07;;;0.90;;
13230;SDS011;6681;53.254;10.398;2023-04-25T13:31:36;3.53;;;1.23;;
13230;SDS011;6681;53.254;10.398;2023-04-25T13:34:02;1.73;;;0.70;;
13230;SDS011;6681;53.254;10.398;2023-04-25T13:36:28;5.20;;;1.07;;
13230;SDS011;6681;53.254;10.398;2023-04-25T13:38:54;1.53;;;0.50;;
13230;SDS011;6681;53.254;10.398;2023-04-25T13:41:19;4.23;;;0.60;;
13230;SDS011;6681;53.254;10.398;2023-04-25T13:43:46;5.83;;;1.37;;
13230;SDS011;6681;53.254;10.398;2023-04-25T13:46:12;2.57;;;0.93;;
13230;SDS011;6681;53.254;10.398;2023-04-25T13:48:38;9.00;;;2.70;;
13230;SDS011;6681;53.254;10.398;2023-04-25T13:51:04;1.43;;;0.73;;
13230;SDS011;6681;53.254;10.398;2023-04-25T13:53:30;2.10;;;0.63;;
13230;SDS011;6681;53.254;10.398;2023-04-25T13:55:55;4.23;;;0.70;;
13230;SDS011;6681;53.254;10.398;2023-04-25T13:58:21;2.80;;;1.13;;
13230;SDS011;6681;53.254;10.398;2023-04-25T14:00:47;1.47;;;0.80;;
13230;SDS011;6681;53.254;10.398;2023-04-25T14:03:12;4.03;;;1.70;;
13230;SDS011;6681;53.254;10.398;2023-04-25T14:05:38;3.60;;;1.10;;
13230;SDS011;6681;53.254;10.398;2023-04-25T14:08:05;0.83;;;0.70;;
13230;SDS011;6681;53.254;10.398;2023-04-25T14:10:32;2.63;;;1.10;;
13230;SDS011;6681;53.254;10.398;2023-04-25T14:12:57;4.03;;;1.13;;
13230;SDS011;6681;53.254;10.398;2023-04-25T14:15:24;3.80;;;1.00;;
13230;SDS011;6681;53.254;10.398;2023-04-25T14:17:50;9.63;;;1.27;;
13230;SDS011;6681;53.254;10.398;2023-04-25T14:20:16;8.23;;;1.20;;
13230;SDS011;6681;53.254;10.398;2023-04-25T14:22:45;1.40;;;1.03;;
13230;SDS011;6681;53.254;10.398;2023-04-25T14:25:10;2.50;;;1.37;;
13230;SDS011;6681;53.254;10.398;2023-04-25T14:27:36;5.20;;;1.10;;
13230;SDS011;6681;53.254;10.398;2023-04-25T14:30:02;5.13;;;1.37;;
13230;SDS011;6681;53.254;10.398;2023-04-25T14:32:29;1.03;;;0.53;;
13230;SDS011;6681;53.254;10.398;2023-04-25T14:34:56;8.23;;;1.33;;
13230;SDS011;6681;53.254;10.398;2023-04-25T14:37:22;7.53;;;1.47;;
13230;SDS011;6681;53.254;10.398;2023-04-25T14:39:48;3.20;;;1.10;;
13230;SDS011;6681;53.254;10.398;2023-04-25T14:42:13;3.60;;;1.00;;
13230;SDS011;6681;53.254;10.398;2023-04-25T14:44:39;3.23;;;1.23;;
13230;SDS011;6681;53.254;10.398;2023-04-25T14:47:05;6.97;;;1.33;;
13230;SDS011;6681;53.254;10.398;2023-04-25T14:49:31;6.60;;;2.27;;
13230;SDS011;6681;53.254;10.398;2023-04-25T14:51:57;7.03;;;1.87;;
13230;SDS011;6681;53.254;10.398;2023-04-25T14:54:22;1.97;;;1.43;;
13230;SDS011;6681;53.254;10.398;2023-04-25T14:56:48;2.20;;;1.00;;
13230;SDS011;6681;53.254;10.398;2023-04-25T14:59:14;4.27;;;1.30;;